Time;durP1;ratioP1;P1;durP2;ratioP2;P2;SDS_P1;SDS_P2;PMS_P1;PMS_P2;Temp;Humidity;BMP_temperature;BMP_pressure;BME280_temperature;BME280_humidity;BME280_pressure;Samples;Min_cycle;Max_cycle;Signal;HPM_P1;HPM_P2
2023/03/29 00:00:51;;;;;;;0.60;0.60;;;;;;;3.47;71.20;99775.94;5114884;27;20239;-68
2023/03/29 00:03:17;;;;;;;0.80;0.80;;;;;;;3.38;71.32;99762.38;5116673;27;20578;-67
2023/03/29 00:05:46;;;;;;;1.37;1.37;;;;;;;3.42;71.13;99780.13;5119607;27;20191;-68
2023/03/29 00:08:13;;;;;;;0.63;0.63;;;;;;;3.42;71.34;99786.88;5117295;27;20195;-67
2023/03/29 00:10:41;;;;;;;0.70;0.70;;;;;;;3.30;71.61;99776.66;5119242;27;20197;-68
2023/03/29 00:13:07;;;;;;;0.70;0.70;;;;;;;3.37;71.69;99788.53;5117094;27;20267;-67
2023/03/29 00:15:34;;;;;;;0.80;0.80;;;;;;;3.28;72.18;99779.22;5118746;27;20190;-67
2023/03/29 00:18:01;;;;;;;0.60;0.60;;;;;;;3.22;72.75;99783.41;5113888;27;20206;-67
2023/03/29 00:20:28;;;;;;;0.70;0.70;;;;;;;3.09;73.29;99772.34;5122668;27;20197;-68
2023/03/29 00:22:56;;;;;;;0.80;0.80;;;;;;;3.16;73.79;99785.06;5122513;27;20191;-68
2023/03/29 00:25:23;;;;;;;0.60;0.60;;;;;;;3.13;74.14;99790.09;5117286;27;20190;-68
2023/03/29 00:27:50;;;;;;;0.70;0.70;;;;;;;3.10;74.11;99790.06;5115714;27;20298;-68
2023/03/29 00:30:17;;;;;;;0.73;0.73;;;;;;;3.12;73.96;99796.03;5113192;27;20201;-68
2023/03/29 00:32:44;;;;;;;0.70;0.70;;;;;;;3.10;73.99;99797.69;5113631;27;20198;-68
2023/03/29 00:35:11;;;;;;;0.60;0.60;;;;;;;3.15;73.30;99795.19;5115262;27;20203;-67
2023/03/29 00:37:38;;;;;;;0.70;0.70;;;;;;;3.21;73.32;99801.97;5114151;27;20251;-68
2023/03/29 00:40:09;;;;;;;0.90;0.90;;;;;;;3.19;73.21;99801.97;5114723;27;20191;-68
2023/03/29 00:42:36;;;;;;;0.90;0.90;;;;;;;3.18;73.18;99803.66;5121547;27;20220;-68
2023/03/29 00:45:07;;;;;;;0.70;0.70;;;;;;;3.20;73.43;99805.34;5115243;27;20276;-68
2023/03/29 00:47:40;;;;;;;0.70;0.70;;;;;;;3.19;73.60;99794.38;5113774;27;20203;-67
2023/03/29 00:50:14;;;;;;;0.70;0.70;;;;;;;3.14;73.64;99791.81;5113466;27;20208;-68
2023/03/29 00:52:45;;;;;;;0.60;0.60;;;;;;;3.12;74.02;99783.34;5113074;27;20196;-68
2023/03/29 00:55:17;;;;;;;0.70;0.70;;;;;;;3.01;74.52;99779.06;5116028;27;20309;-68
2023/03/29 00:57:46;;;;;;;0.70;0.70;;;;;;;2.95;74.89;99794.22;5119646;27;20198;-67
2023/03/29 01:00:19;;;;;;;0.73;0.73;;;;;;;2.88;74.91;99805.97;5130825;27;20673;-68
2023/03/29 01:02:49;;;;;;;0.60;0.60;;;;;;;2.87;74.57;99806.84;5116540;27;20390;-68
2023/03/29 01:05:23;;;;;;;0.70;0.70;;;;;;;2.90;74.68;99806.84;5118893;27;20226;-67
2023/03/29 01:07:56;;;;;;;0.70;0.70;;;;;;;2.89;74.49;99807.69;5112394;27;20194;-67
2023/03/29 01:10:29;;;;;;;0.70;0.70;;;;;;;2.85;75.16;99808.50;5113116;27;20229;-67
2023/03/29 01:13:02;;;;;;;0.70;0.70;;;;;;;2.83;75.13;99815.25;5113048;27;20194;-67
2023/03/29 01:15:30;;;;;;;0.97;0.97;;;;;;;2.66;74.85;99796.53;5121173;27;20270;-67
2023/03/29 01:18:00;;;;;;;0.70;0.70;;;;;;;2.84;74.35;99821.16;5113756;27;20194;-68
2023/03/29 01:20:42;;;;;;;0.60;0.60;;;;;;;2.85;74.01;99822.81;5129934;27;20205;-67
2023/03/29 01:23:27;;;;;;;0.93;0.93;;;;;;;2.89;73.50;99830.47;5116521;27;20218;-67
2023/03/29 01:26:06;;;;;;;0.70;0.70;;;;;;;2.87;73.60;99832.16;5123889;27;20206;-67
2023/03/29 01:28:40;;;;;;;0.70;0.70;;;;;;;2.91;73.25;99838.91;5114948;27;20194;-68
2023/03/29 01:31:10;;;;;;;0.70;0.70;;;;;;;2.80;73.38;99827.03;5120473;27;20247;-68
2023/03/29 01:33:41;;;;;;;0.63;0.63;;;;;;;2.89;72.81;99834.69;5122423;27;20193;-68
2023/03/29 01:36:17;;;;;;;0.87;0.87;;;;;;;2.87;72.92;99832.16;5116934;27;20195;-68
2023/03/29 01:38:49;;;;;;;0.70;0.70;;;;;;;2.87;72.91;99837.22;5124651;27;20643;-66
2023/03/29 01:41:16;;;;;;;0.70;0.70;;;;;;;2.69;72.54;99801.63;5119731;27;20219;-68
2023/03/29 01:43:51;;;;;;;0.70;0.70;;;;;;;2.97;71.93;99828.81;5117712;28;20677;-68
2023/03/29 01:46:29;;;;;;;0.70;0.70;;;;;;;2.78;71.39;99790.72;5115108;27;20194;-67
2023/03/29 01:49:00;;;;;;;1.13;1.03;;;;;;;3.06;71.25;99823.00;5111811;28;20294;-67
2023/03/29 01:51:35;;;;;;;0.70;0.70;;;;;;;2.91;71.54;99790.81;5120321;27;20669;-68
2023/03/29 01:54:06;;;;;;;0.63;0.63;;;;;;;3.07;71.50;99814.56;5113373;27;20191;-67
2023/03/29 01:56:37;;;;;;;0.70;0.70;;;;;;;3.02;71.05;99812.00;5116137;27;20226;-68
2023/03/29 01:59:10;;;;;;;0.80;0.80;;;;;;;3.09;70.39;99826.41;5113731;28;20194;-67
2023/03/29 02:01:41;;;;;;;0.60;0.60;;;;;;;3.10;70.66;99834.84;5113580;28;20305;-67
2023/03/29 02:04:12;;;;;;;0.60;0.60;;;;;;;3.12;69.76;99831.47;5114661;28;20663;-67
2023/03/29 02:06:41;;;;;;;0.70;0.70;;;;;;;3.10;69.46;99825.53;5114696;28;20205;-67
2023/03/29 02:09:09;;;;;;;0.60;0.60;;;;;;;3.18;69.40;99859.38;5115611;27;20245;-68
2023/03/29 02:11:36;;;;;;;0.80;0.80;;;;;;;3.13;69.38;99866.09;5123694;27;20709;-68
2023/03/29 02:14:05;;;;;;;0.60;0.60;;;;;;;3.10;69.86;99855.94;5119562;27;20191;-66
2023/03/29 02:16:35;;;;;;;0.60;0.60;;;;;;;2.98;69.59;99848.25;5127065;27;20190;-67
2023/03/29 02:19:03;;;;;;;0.80;0.80;;;;;;;3.08;70.00;99870.28;5128775;27;20194;-63
2023/03/29 02:21:36;;;;;;;0.70;0.70;;;;;;;3.06;69.97;99869.44;5120416;27;20213;-63
2023/03/29 02:24:08;;;;;;;0.77;0.77;;;;;;;3.02;70.59;99869.38;5120622;27;20248;-63
2023/03/29 02:26:35;;;;;;;0.60;0.60;;;;;;;2.96;70.58;99876.94;5123114;27;20190;-63
2023/03/29 02:29:02;;;;;;;0.60;0.60;;;;;;;2.78;71.82;99882.69;5115752;27;20206;-63
2023/03/29 02:31:36;;;;;;;0.70;0.70;;;;;;;2.70;72.41;99874.19;5123933;27;20254;-63
2023/03/29 02:34:08;;;;;;;0.80;0.80;;;;;;;2.63;73.19;99888.47;5117119;27;20267;-63
2023/03/29 02:36:40;;;;;;;0.70;0.70;;;;;;;2.49;73.65;99884.94;5127534;27;20658;-63
2023/03/29 02:39:09;;;;;;;0.90;0.90;;;;;;;2.54;73.83;99901.06;5127133;27;20569;-63
2023/03/29 02:41:38;;;;;;;0.77;0.77;;;;;;;2.47;74.04;99894.22;5117518;27;20221;-63
2023/03/29 02:44:08;;;;;;;0.73;0.73;;;;;;;2.41;74.03;99895.84;5118077;27;20243;-63
2023/03/29 02:46:37;;;;;;;0.70;0.70;;;;;;;2.33;74.51;99894.91;5115256;27;20194;-63
2023/03/29 02:49:05;;;;;;;0.70;0.70;;;;;;;2.23;74.64;99900.72;5115639;27;20293;-63
2023/03/29 02:51:34;;;;;;;0.70;0.70;;;;;;;2.21;75.06;99899.81;5116036;27;20194;-63
2023/03/29 02:54:05;;;;;;;0.70;0.70;;;;;;;2.11;75.30;99892.16;5121490;27;20269;-63
2023/03/29 02:56:42;;;;;;;0.60;0.60;;;;;;;2.10;75.28;99905.59;5127320;27;20635;-63
2023/03/29 02:59:10;;;;;;;0.70;0.70;;;;;;;2.05;75.73;99897.13;5127078;27;20194;-63
2023/03/29 03:01:38;;;;;;;0.70;0.70;;;;;;;2.06;75.54;99898.00;5116947;27;20759;-63
2023/03/29 03:04:05;;;;;;;0.70;0.70;;;;;;;1.99;75.52;99902.13;5118086;27;20202;-63
2023/03/29 03:06:31;;;;;;;0.70;0.70;;;;;;;1.93;75.47;99891.09;5121781;27;20198;-63
2023/03/29 03:08:58;;;;;;;0.70;0.70;;;;;;;1.95;75.17;99905.44;5118898;27;20195;-63
2023/03/29 03:11:25;;;;;;;0.70;0.70;;;;;;;1.92;74.78;99907.94;5120165;27;20641;-63
2023/03/29 03:13:52;;;;;;;0.70;0.70;;;;;;;1.91;74.57;99913.81;5119247;27;20272;-63
2023/03/29 03:16:19;;;;;;;0.77;0.77;;;;;;;1.85;74.14;99906.16;5123558;27;20252;-63
2023/03/29 03:18:49;;;;;;;0.60;0.60;;;;;;;1.87;73.82;99909.56;5125761;27;20209;-63
2023/03/29 03:21:16;;;;;;;0.70;0.70;;;;;;;1.91;73.58;99903.69;5127253;27;20195;-63
2023/03/29 03:23:44;;;;;;;0.70;0.70;;;;;;;1.92;73.63;99914.66;5116185;27;20248;-63
2023/03/29 03:26:11;;;;;;;0.80;0.80;;;;;;;1.96;73.32;99917.25;5125360;27;20205;-63
2023/03/29 03:28:38;;;;;;;0.63;0.63;;;;;;;1.94;73.57;99923.94;5120453;27;20281;-63
2023/03/29 03:31:06;;;;;;;0.90;0.90;;;;;;;1.95;73.52;99925.66;5128311;27;20209;-63
2023/03/29 03:33:32;;;;;;;0.90;0.90;;;;;;;1.96;73.74;99932.44;5118378;27;20186;-63
2023/03/29 03:36:04;;;;;;;0.70;0.70;;;;;;;1.98;73.55;99938.34;5118441;27;20721;-63
2023/03/29 03:38:31;;;;;;;0.90;0.90;;;;;;;1.98;73.17;99930.75;5118973;27;20204;-63
2023/03/29 03:40:59;;;;;;;0.80;0.80;;;;;;;2.04;73.49;99940.94;5119355;27;20207;-63
2023/03/29 03:43:26;;;;;;;0.70;0.70;;;;;;;2.11;73.04;99950.31;5123080;27;20689;-63
2023/03/29 03:45:53;;;;;;;0.70;0.70;;;;;;;2.11;72.79;99947.78;5128420;27;20205;-63
2023/03/29 03:48:20;;;;;;;0.70;0.70;;;;;;;2.10;72.47;99946.06;5122678;27;20810;-63
2023/03/29 03:50:49;;;;;;;0.80;0.80;;;;;;;2.15;72.50;99952.88;5121158;27;20650;-63
2023/03/29 03:53:17;;;;;;;0.60;0.60;;;;;;;2.13;72.76;99949.50;5127432;27;20694;-63
2023/03/29 03:55:47;;;;;;;1.00;1.00;;;;;;;2.13;72.88;99958.75;5126268;27;20217;-63
2023/03/29 03:58:14;;;;;;;0.70;0.70;;;;;;;1.98;72.76;99950.97;5118576;27;20675;-63
2023/03/29 04:00:41;;;;;;;0.70;0.70;;;;;;;2.08;73.29;99972.19;5125701;27;20245;-63
2023/03/29 04:03:08;;;;;;;0.83;0.83;;;;;;;2.10;72.92;99970.53;5121498;27;20346;-63
2023/03/29 04:05:39;;;;;;;0.83;0.83;;;;;;;2.09;73.34;99974.75;5122185;27;20213;-63
2023/03/29 04:08:06;;;;;;;0.80;0.80;;;;;;;2.16;73.29;99974.81;5129395;27;20697;-63
2023/03/29 04:10:35;;;;;;;0.67;0.67;;;;;;;2.08;73.29;99972.19;5126815;27;20194;-63
2023/03/29 04:13:03;;;;;;;0.70;0.70;;;;;;;2.04;74.03;99983.94;5126497;27;20686;-63
2023/03/29 04:15:31;;;;;;;0.70;0.70;;;;;;;1.94;74.17;99966.94;5131234;27;20282;-63
2023/03/29 04:17:59;;;;;;;0.70;0.70;;;;;;;2.00;74.36;99984.72;5132156;27;20194;-63
2023/03/29 04:20:27;;;;;;;0.70;0.70;;;;;;;2.02;74.43;99987.28;5121713;27;20693;-63
2023/03/29 04:22:54;;;;;;;0.60;0.60;;;;;;;2.01;74.76;99995.69;5113529;27;20713;-63
2023/03/29 04:25:21;;;;;;;0.80;0.80;;;;;;;2.03;74.63;99991.50;5114112;27;20198;-63
2023/03/29 04:27:50;;;;;;;0.73;0.73;;;;;;;2.05;74.43;100000.81;5114260;27;20574;-63
2023/03/29 04:30:17;;;;;;;0.80;0.80;;;;;;;2.06;74.51;99989.03;5115387;27;20190;-63
2023/03/29 04:32:43;;;;;;;0.70;0.70;;;;;;;2.12;74.34;100004.28;5125540;27;20194;-63
2023/03/29 04:35:10;;;;;;;0.70;0.70;;;;;;;2.18;74.16;99993.38;5127663;27;20197;-63
2023/03/29 04:37:39;;;;;;;0.93;0.93;;;;;;;2.28;73.67;99996.06;5128022;27;20195;-63
2023/03/29 04:40:08;;;;;;;0.80;0.80;;;;;;;2.34;73.61;99991.06;5123467;27;20753;-63
2023/03/29 04:42:36;;;;;;;0.70;0.70;;;;;;;2.38;73.28;99999.53;5113128;27;20210;-63
2023/03/29 04:45:05;;;;;;;0.70;0.70;;;;;;;2.51;72.73;100006.44;5113778;27;20573;-63
2023/03/29 04:47:34;;;;;;;0.90;0.90;;;;;;;2.63;72.25;100009.13;5115523;27;20282;-63
2023/03/29 04:50:01;;;;;;;0.70;0.70;;;;;;;2.64;72.21;100005.75;5118099;27;20194;-63
2023/03/29 04:52:31;;;;;;;0.77;0.77;;;;;;;2.83;71.78;100011.88;5118422;27;20205;-65
2023/03/29 04:54:58;;;;;;;0.77;0.77;;;;;;;2.92;71.22;100022.09;5124361;27;20198;-64
2023/03/29 04:57:25;;;;;;;0.70;0.70;;;;;;;3.02;70.77;100004.47;5122738;27;20220;-65
2023/03/29 04:59:52;;;;;;;0.90;0.90;;;;;;;3.14;70.67;100019.78;5124346;27;20213;-65
2023/03/29 05:02:20;;;;;;;0.70;0.70;;;;;;;3.21;70.29;100014.75;5123941;27;20274;-65
2023/03/29 05:04:47;;;;;;;0.80;0.80;;;;;;;3.41;69.67;100023.41;5123371;27;20205;-64
2023/03/29 05:07:16;;;;;;;0.60;0.60;;;;;;;3.51;69.41;100020.97;5124202;27;20202;-64
2023/03/29 05:09:43;;;;;;;0.60;0.60;;;;;;;3.63;68.97;100022.72;5121462;27;20198;-64
2023/03/29 05:12:10;;;;;;;0.70;0.70;;;;;;;3.75;68.57;100015.19;5125702;27;20949;-64
2023/03/29 05:14:37;;;;;;;0.70;0.70;;;;;;;3.89;68.35;100021.22;5124177;27;20194;-64
2023/03/29 05:17:05;;;;;;;0.60;0.60;;;;;;;4.03;67.48;100017.09;5126138;27;20198;-64
2023/03/29 05:19:35;;;;;;;0.70;0.70;;;;;;;4.12;66.16;100023.91;5124825;27;20285;-64
2023/03/29 05:22:02;;;;;;;0.70;0.70;;;;;;;4.26;66.21;100019.75;5129505;27;20669;-64
2023/03/29 05:24:28;;;;;;;0.60;0.60;;;;;;;4.44;66.48;100016.44;5125606;27;20202;-68
2023/03/29 05:26:55;;;;;;;0.70;0.70;;;;;;;4.59;66.28;100019.03;5128904;27;20202;-64
2023/03/29 05:29:22;;;;;;;0.70;0.70;;;;;;;4.80;65.51;100024.22;5129426;27;20673;-64
2023/03/29 05:31:49;;;;;;;0.70;0.70;;;;;;;5.03;64.15;100020.03;5124844;27;20674;-64
2023/03/29 05:34:15;;;;;;;0.73;0.73;;;;;;;5.20;62.67;100025.16;5124731;27;20619;-64
2023/03/29 05:36:44;;;;;;;0.60;0.60;;;;;;;5.35;63.01;100024.31;5126539;27;20659;-64
2023/03/29 05:39:12;;;;;;;0.60;0.60;;;;;;;5.51;62.15;100020.91;5125465;27;20209;-64
2023/03/29 05:41:40;;;;;;;0.60;0.60;;;;;;;5.69;61.50;100010.72;5126933;27;20289;-64
2023/03/29 05:44:07;;;;;;;0.90;0.90;;;;;;;5.68;60.73;99998.88;5122931;27;20222;-64
2023/03/29 05:46:34;;;;;;;0.60;0.60;;;;;;;5.91;59.16;100016.69;5128777;27;20218;-64
2023/03/29 05:49:01;;;;;;;0.70;0.70;;;;;;;6.05;59.44;100020.91;5120527;27;20202;-64
2023/03/29 05:51:28;;;;;;;0.70;0.70;;;;;;;6.17;59.23;100010.69;5119604;27;20661;-65
2023/03/29 05:53:56;;;;;;;0.60;0.60;;;;;;;6.35;57.39;100019.97;5129190;27;20194;-64
2023/03/29 05:56:23;;;;;;;0.60;0.60;;;;;;;6.33;55.97;100002.13;5122783;27;20287;-64
2023/03/29 05:58:50;;;;;;;0.80;0.80;;;;;;;6.46;56.42;100013.16;5127552;27;20198;-64
2023/03/29 06:01:17;;;;;;;0.60;0.60;;;;;;;6.58;54.53;100007.16;5118210;27;20210;-64
2023/03/29 06:03:46;;;;;;;0.63;0.63;;;;;;;6.71;54.83;100003.69;5115915;28;20245;-63
2023/03/29 06:06:15;;;;;;;0.70;0.70;;;;;;;6.79;53.55;100009.59;5121803;27;20202;-64
2023/03/29 06:08:42;;;;;;;0.70;0.70;;;;;;;6.62;53.13;99985.91;5120383;28;20575;-64
2023/03/29 06:11:12;;;;;;;0.70;0.70;;;;;;;6.90;54.12;100010.38;5115737;27;20666;-64
2023/03/29 06:13:40;;;;;;;0.60;0.60;;;;;;;6.93;53.25;100015.47;5121109;27;20197;-63
2023/03/29 06:16:08;;;;;;;0.73;0.73;;;;;;;7.02;51.70;100020.50;5126013;28;20202;-64
2023/03/29 06:18:35;;;;;;;0.70;0.70;;;;;;;7.17;52.06;100015.28;5119706;27;20209;-63
2023/03/29 06:21:02;;;;;;;0.87;0.87;;;;;;;7.17;52.33;100030.59;5121696;28;20202;-64
2023/03/29 06:23:29;;;;;;;0.60;0.60;;;;;;;7.21;51.16;100031.41;5113805;27;20210;-64
2023/03/29 06:25:58;;;;;;;0.60;0.60;;;;;;;7.46;51.16;100037.22;5126223;28;20194;-64
2023/03/29 06:28:27;;;;;;;0.70;0.70;;;;;;;7.60;50.31;100041.34;5121893;28;20632;-64
2023/03/29 06:30:55;;;;;;;0.60;0.60;;;;;;;7.58;48.29;100037.13;5117707;28;20199;-64
2023/03/29 06:33:23;;;;;;;0.50;0.50;;;;;;;7.59;49.58;100039.69;5120938;28;20206;-63
2023/03/29 06:35:50;;;;;;;0.60;0.60;;;;;;;7.63;48.50;100040.47;5119457;27;20226;-64
2023/03/29 06:38:16;;;;;;;0.70;0.70;;;;;;;7.82;48.54;100047.09;5123968;28;20665;-64
2023/03/29 06:40:44;;;;;;;0.57;0.57;;;;;;;7.92;47.74;100053.81;5126802;27;20698;-63
2023/03/29 06:43:10;;;;;;;0.50;0.50;;;;;;;8.02;47.54;100044.38;5122377;28;20214;-64
2023/03/29 06:45:39;;;;;;;0.50;0.50;;;;;;;8.07;47.77;100057.97;5121962;28;20198;-68
2023/03/29 06:48:07;;;;;;;1.43;1.33;;;;;;;8.17;47.94;100050.22;5120295;28;20202;-64
2023/03/29 06:50:34;;;;;;;0.50;0.50;;;;;;;8.38;47.25;100046.59;5118901;28;20208;-65
2023/03/29 06:53:01;;;;;;;0.87;0.87;;;;;;;8.43;44.31;100061.00;5123053;28;20202;-65
2023/03/29 06:55:28;;;;;;;0.50;0.50;;;;;;;8.41;45.46;100064.44;5124356;28;20424;-61
2023/03/29 06:57:55;;;;;;;0.77;0.77;;;;;;;8.42;45.48;100061.03;5123071;27;20262;-62
2023/03/29 07:00:26;;;;;;;0.47;0.47;;;;;;;8.53;44.25;100068.59;5120379;27;20201;-61
2023/03/29 07:02:55;;;;;;;0.50;0.50;;;;;;;8.62;44.59;100048.88;5130346;27;20217;-61
2023/03/29 07:05:22;;;;;;;0.50;0.50;;;;;;;8.91;44.36;100068.97;5124148;27;20293;-61
2023/03/29 07:07:59;;;;;;;0.70;0.70;;;;;;;8.95;42.33;100068.88;5126176;27;20208;-61
2023/03/29 07:10:31;;;;;;;0.50;0.50;;;;;;;8.90;41.39;100064.72;5117245;27;20202;-61
2023/03/29 07:12:58;;;;;;;0.80;0.80;;;;;;;9.01;40.16;100068.00;5130149;27;20202;-60
2023/03/29 07:15:26;;;;;;;0.60;0.60;;;;;;;8.60;41.20;100034.41;5128732;27;20293;-61
2023/03/29 07:17:56;;;;;;;0.50;0.50;;;;;;;8.96;39.08;100085.94;5116806;27;20198;-60
2023/03/29 07:20:25;;;;;;;0.53;0.53;;;;;;;9.02;39.31;100074.78;5112255;28;20297;-61
2023/03/29 07:22:53;;;;;;;0.60;0.60;;;;;;;9.08;39.10;100069.56;5118715;27;20209;-61
2023/03/29 07:25:21;;;;;;;0.50;0.50;;;;;;;9.30;38.13;100091.47;5126682;27;20213;-62
2023/03/29 07:27:48;;;;;;;0.40;0.40;;;;;;;9.39;37.71;100080.25;5123340;27;20633;-61
2023/03/29 07:30:18;;;;;;;0.50;0.50;;;;;;;9.40;37.02;100093.00;5122979;27;20201;-61
2023/03/29 07:32:46;;;;;;;0.60;0.60;;;;;;;9.46;36.97;100079.28;5129343;27;20285;-62
2023/03/29 07:35:16;;;;;;;0.50;0.50;;;;;;;9.58;36.27;100079.09;5134847;27;20208;-61
2023/03/29 07:37:44;;;;;;;0.60;0.60;;;;;;;9.59;37.60;100073.13;5123983;27;20286;-62
2023/03/29 07:40:15;;;;;;;0.70;0.70;;;;;;;9.60;36.17;100089.28;5126877;27;20206;-61
2023/03/29 07:42:42;;;;;;;0.50;0.50;;;;;;;9.71;35.70;100087.44;5130001;27;20656;-62
2023/03/29 07:45:12;;;;;;;0.50;0.50;;;;;;;9.62;35.27;100088.44;5122907;27;20578;-62
2023/03/29 07:47:39;;;;;;;0.57;0.57;;;;;;;9.71;36.11;100085.72;5120621;27;20290;-62
2023/03/29 07:50:07;;;;;;;0.50;0.50;;;;;;;9.70;34.75;100095.97;5130551;27;20198;-61
2023/03/29 07:52:37;;;;;;;0.50;0.50;;;;;;;9.73;35.91;100083.13;5121348;27;20670;-61
2023/03/29 07:55:04;;;;;;;0.50;0.50;;;;;;;9.69;35.55;100097.72;5114699;27;20218;-61
2023/03/29 07:57:31;;;;;;;0.87;0.87;;;;;;;9.35;34.48;100089.66;5131174;27;20209;-61
2023/03/29 07:59:58;;;;;;;0.50;0.50;;;;;;;9.51;36.20;100090.28;5125824;27;20203;-62
2023/03/29 08:02:25;;;;;;;0.40;0.40;;;;;;;9.59;35.66;100087.63;5131392;27;20258;-62
2023/03/29 08:04:53;;;;;;;0.60;0.60;;;;;;;9.76;35.60;100085.63;5131265;27;20220;-61
2023/03/29 08:07:20;;;;;;;0.63;0.63;;;;;;;9.94;35.76;100090.47;5126442;27;20201;-59
2023/03/29 08:09:48;;;;;;;0.50;0.50;;;;;;;9.92;36.71;100076.81;5125398;27;20433;-61
2023/03/29 08:12:15;;;;;;;0.60;0.60;;;;;;;10.04;36.21;100081.75;5125462;27;20230;-60
2023/03/29 08:14:42;;;;;;;0.40;0.40;;;;;;;10.20;35.45;100070.41;5123819;27;20251;-61
2023/03/29 08:17:09;;;;;;;0.50;0.50;;;;;;;10.34;36.01;100060.72;5115920;27;20195;-61
2023/03/29 08:19:36;;;;;;;0.50;0.50;;;;;;;10.42;36.08;100069.13;5120823;27;20191;-61
2023/03/29 08:22:03;;;;;;;0.50;0.50;;;;;;;10.43;34.07;100070.84;5123844;27;20202;-61
2023/03/29 08:24:30;;;;;;;0.40;0.40;;;;;;;10.40;34.69;100070.88;5122273;27;20560;-61
2023/03/29 08:26:58;;;;;;;0.43;0.43;;;;;;;10.39;34.88;100063.22;5118996;27;20198;-61
2023/03/29 08:29:25;;;;;;;0.67;0.67;;;;;;;10.50;34.30;100057.00;5124557;27;20637;-60
2023/03/29 08:31:55;;;;;;;0.60;0.60;;;;;;;10.56;33.95;100060.34;5122984;27;20206;-61
2023/03/29 08:34:22;;;;;;;0.50;0.50;;;;;;;10.73;35.88;100056.56;5122765;27;20249;-61
2023/03/29 08:36:49;;;;;;;0.80;0.80;;;;;;;10.52;34.77;100055.28;5126212;27;20202;-61
2023/03/29 08:39:15;;;;;;;0.50;0.50;;;;;;;10.70;34.23;100078.84;5122745;27;20704;-60
2023/03/29 08:41:57;;;;;;;0.40;0.40;;;;;;;10.35;34.28;100072.69;5126054;27;20206;-61
2023/03/29 08:44:43;;;;;;;0.67;0.67;;;;;;;10.52;34.28;100054.44;5117410;27;20222;-61
2023/03/29 08:47:17;;;;;;;0.53;0.53;;;;;;;10.68;34.25;100060.09;5115852;27;20653;-61
2023/03/29 08:49:50;;;;;;;0.50;0.50;;;;;;;10.95;37.01;100056.97;5118709;27;20197;-61
2023/03/29 08:52:24;;;;;;;0.40;0.40;;;;;;;10.74;32.22;100065.09;5125816;27;20229;-60
2023/03/29 08:54:54;;;;;;;0.40;0.40;;;;;;;10.59;33.76;100057.72;5125716;27;20194;-61
2023/03/29 08:57:25;;;;;;;0.40;0.40;;;;;;;10.72;34.56;100051.47;5119946;27;20585;-61
2023/03/29 08:59:56;;;;;;;0.60;0.60;;;;;;;10.86;33.37;100054.56;5118523;27;20202;-61
2023/03/29 09:02:26;;;;;;;0.57;0.57;;;;;;;10.91;33.84;100039.94;5123818;27;20210;-61
2023/03/29 09:04:58;;;;;;;0.50;0.50;;;;;;;11.10;36.23;100043.81;5123634;27;20240;-61
2023/03/29 09:07:26;;;;;;;0.60;0.60;;;;;;;11.11;35.34;100045.50;5125221;27;20632;-62
2023/03/29 09:09:54;;;;;;;0.50;0.50;;;;;;;11.17;35.63;100060.75;5123107;27;20209;-61
2023/03/29 09:12:33;;;;;;;0.43;0.43;;;;;;;11.15;35.78;100043.72;5126791;27;20578;-61
2023/03/29 09:15:10;;;;;;;0.60;0.60;;;;;;;11.00;33.46;100052.56;5124627;27;20210;-62
2023/03/29 09:17:50;;;;;;;0.50;0.50;;;;;;;11.26;34.23;100059.69;5118214;27;20281;-61
2023/03/29 09:20:27;;;;;;;0.50;0.50;;;;;;;11.35;35.23;100055.19;5114586;27;20198;-61
2023/03/29 09:23:09;;;;;;;0.50;0.50;;;;;;;11.39;34.40;100046.56;5119159;27;20217;-61
2023/03/29 09:25:46;;;;;;;0.47;0.47;;;;;;;11.48;35.09;100050.63;5124730;27;20247;-61
2023/03/29 09:28:18;;;;;;;0.50;0.50;;;;;;;11.57;33.96;100037.56;5121746;27;20209;-62
2023/03/29 09:30:54;;;;;;;0.47;0.47;;;;;;;11.56;33.69;100054.72;5115191;27;20207;-61
2023/03/29 09:33:26;;;;;;;0.60;0.60;;;;;;;11.31;31.53;100056.16;5118045;27;20566;-61
2023/03/29 09:35:58;;;;;;;0.50;0.50;;;;;;;11.55;35.56;100042.75;5127902;27;20258;-61
2023/03/29 09:38:25;;;;;;;0.50;0.50;;;;;;;11.87;34.08;100046.28;5127948;27;20201;-61
2023/03/29 09:40:55;;;;;;;0.40;0.40;;;;;;;11.83;32.06;100048.09;5116522;27;20206;-61
2023/03/29 09:50:02;;;;;;;0.50;0.50;;;;;;;11.73;31.25;100041.47;5082607;28;20290;-61
2023/03/29 09:52:29;;;;;;;0.60;0.60;;;;;;;11.86;32.03;100042.00;5087373;28;20214;-61
2023/03/29 09:54:56;;;;;;;0.60;0.60;;;;;;;11.88;30.85;100038.56;5077824;28;20203;-61
2023/03/29 09:57:22;;;;;;;0.60;0.60;;;;;;;12.01;31.58;100028.78;5087133;28;20800;-61
2023/03/29 09:59:51;;;;;;;0.50;0.50;;;;;;;11.90;30.17;100033.34;5087296;28;20218;-61
2023/03/29 10:02:20;;;;;;;0.77;0.77;;;;;;;11.86;31.44;100016.31;5087297;28;20281;-61
2023/03/29 10:04:54;;;;;;;0.50;0.50;;;;;;;11.77;32.16;100032.81;5085862;28;20219;-61
2023/03/29 10:07:22;;;;;;;0.60;0.60;;;;;;;11.91;32.25;100029.91;5086021;28;20653;-62
2023/03/29 10:09:51;;;;;;;0.57;0.57;;;;;;;11.82;30.55;100019.88;5088499;28;20215;-61
2023/03/29 10:12:19;;;;;;;0.60;0.60;;;;;;;11.92;31.56;100023.91;5121913;27;20632;-60
2023/03/29 10:14:50;;;;;;;0.50;0.50;;;;;;;12.00;32.00;100009.13;5123672;27;20678;-62
2023/03/29 10:17:20;;;;;;;0.80;0.80;;;;;;;11.89;31.44;100006.00;5125922;27;20212;-60
2023/03/29 10:19:49;;;;;;;0.40;0.40;;;;;;;11.97;30.68;100019.47;5117958;27;20286;-64
2023/03/29 10:22:20;;;;;;;0.53;0.53;;;;;;;11.76;29.44;100002.06;5127099;27;20194;-61
2023/03/29 10:24:50;;;;;;;0.50;0.50;;;;;;;11.76;31.16;99989.22;5127628;28;20213;-60
2023/03/29 10:27:22;;;;;;;0.70;0.70;;;;;;;12.13;30.39;100000.19;5123708;27;20194;-60
2023/03/29 10:29:49;;;;;;;0.43;0.43;;;;;;;12.16;30.52;99994.97;5122994;28;20226;-61
2023/03/29 10:32:18;;;;;;;0.50;0.50;;;;;;;12.19;31.16;99994.88;5126662;27;20263;-60
2023/03/29 10:34:46;;;;;;;0.47;0.47;;;;;;;12.26;32.25;100000.72;5130181;27;20190;-60
2023/03/29 10:37:15;;;;;;;0.50;0.50;;;;;;;12.18;29.74;99988.06;5125392;27;20202;-60
2023/03/29 10:39:43;;;;;;;0.50;0.50;;;;;;;11.95;27.23;99996.41;5127040;27;20745;-60
2023/03/29 10:42:15;;;;;;;0.50;0.50;;;;;;;11.71;27.89;99975.63;5117868;27;20214;-60
2023/03/29 10:44:42;;;;;;;0.50;0.50;;;;;;;11.69;28.69;99974.81;5123519;27;20226;-61
2023/03/29 10:47:14;;;;;;;0.50;0.50;;;;;;;11.50;29.08;99970.09;5126165;27;20203;-61
2023/03/29 10:49:43;;;;;;;0.40;0.40;;;;;;;11.60;29.65;99974.13;5124520;27;20276;-62
2023/03/29 10:52:13;;;;;;;0.40;0.40;;;;;;;11.67;29.01;99971.41;5124080;27;20202;-61
2023/03/29 10:54:40;;;;;;;0.50;0.50;;;;;;;11.77;29.01;99970.31;5127382;27;20662;-60
2023/03/29 10:57:10;;;;;;;0.63;0.63;;;;;;;11.97;31.23;99962.94;5122076;27;20586;-60
2023/03/29 10:59:48;;;;;;;0.60;0.60;;;;;;;12.18;29.36;99962.34;5122547;27;20653;-60
2023/03/29 11:02:53;;;;;;;0.50;0.50;;;;;;;12.08;30.13;99971.22;5127089;27;20202;-60
2023/03/29 11:05:27;;;;;;;0.87;0.87;;;;;;;12.19;28.89;99948.63;5127476;27;20650;-60
2023/03/29 11:08:26;;;;;;;0.40;0.40;;;;;;;12.26;28.57;99946.72;5119987;27;20202;-60
2023/03/29 11:11:04;;;;;;;0.50;0.50;;;;;;;12.21;28.03;99935.75;5120102;27;20250;-60
2023/03/29 11:25:46;;;;;;;0.70;0.70;;;;;;;12.80;27.11;99919.38;5065326;28;21120;-65
2023/03/29 11:28:21;;;;;;;0.50;0.50;;;;;;;12.61;26.90;99913.94;5040633;28;20210;-65
2023/03/29 11:30:57;;;;;;;0.53;0.53;;;;;;;12.76;28.25;99922.09;5044557;28;20287;-65
2023/03/29 11:33:33;;;;;;;0.53;0.53;;;;;;;12.76;27.55;99898.94;5043493;28;20695;-65
2023/03/29 11:36:09;;;;;;;0.60;0.60;;;;;;;12.77;28.82;99906.59;5045878;28;20266;-70
2023/03/29 11:38:42;;;;;;;0.40;0.40;;;;;;;12.89;30.48;99902.81;5046980;28;20209;-67
2023/03/29 11:41:16;;;;;;;0.50;0.50;;;;;;;12.90;27.69;99907.91;5045437;28;20204;-65
2023/03/29 11:43:47;;;;;;;0.50;0.50;;;;;;;12.90;28.18;99900.19;5044300;28;20297;-65
2023/03/29 11:46:18;;;;;;;0.50;0.50;;;;;;;12.93;27.58;99892.38;5045646;28;20201;-65
2023/03/29 11:48:52;;;;;;;0.60;0.60;;;;;;;12.95;26.78;99880.31;5046593;28;20204;-65
2023/03/29 11:51:22;;;;;;;0.37;0.37;;;;;;;12.96;27.94;99866.53;5047598;28;20201;-65
2023/03/29 11:53:59;;;;;;;0.50;0.50;;;;;;;13.01;28.12;99880.09;5045734;28;20216;-64
2023/03/29 11:56:34;;;;;;;0.50;0.50;;;;;;;12.94;26.89;99880.34;5045555;28;20336;-65
2023/03/29 11:59:06;;;;;;;0.40;0.40;;;;;;;12.97;27.61;99872.53;5047296;28;20204;-65
2023/03/29 12:01:36;;;;;;;0.50;0.50;;;;;;;12.94;26.97;99867.47;5045014;28;20634;-64
2023/03/29 12:04:07;;;;;;;0.60;0.60;;;;;;;12.85;25.14;99872.94;5044681;28;20197;-65